sensor_id;sensor_type;location;lat;lon;timestamp;temperature;humidity
32107;DHT22;18622;51.998;10.440;2023-04-03T02:46:20;-1.30;99.90
32107;DHT22;18622;51.998;10.440;2023-04-03T02:48:48;-1.30;99.90
32107;DHT22;18622;51.998;10.440;2023-04-03T02:51:16;-1.30;99.90
32107;DHT22;18622;51.998;10.440;2023-04-03T02:53:44;-1.30;99.90
32107;DHT22;18622;51.998;10.440;2023-04-03T02:56:12;-1.30;99.90
32107;DHT22;18622;51.998;10.440;2023-04-03T03:01:19;-1.40;99.90
32107;DHT22;18622;51.998;10.440;2023-04-03T03:03:47;-1.50;99.90
32107;DHT22;18622;51.998;10.440;2023-04-03T03:06:16;-1.50;99.90
32107;DHT22;18622;51.998;10.440;2023-04-03T03:08:44;-1.50;99.90
32107;DHT22;18622;51.998;10.440;2023-04-03T03:11:12;-1.50;99.90
32107;DHT22;18622;51.998;10.440;2023-04-03T03:13:39;-1.50;99.90
32107;DHT22;18622;51.998;10.440;2023-04-03T03:16:07;-1.50;99.90
32107;DHT22;18622;51.998;10.440;2023-04-03T03:18:35;-1.60;99.90
32107;DHT22;18622;51.998;10.440;2023-04-03T03:21:03;-1.60;99.90
32107;DHT22;18622;51.998;10.440;2023-04-03T03:23:32;-1.60;99.90
32107;DHT22;18622;51.998;10.440;2023-04-03T03:26:02;-1.60;99.90
32107;DHT22;18622;51.998;10.440;2023-04-03T03:28:30;-1.60;99.90
32107;DHT22;18622;51.998;10.440;2023-04-03T03:30:59;-1.60;99.90
32107;DHT22;18622;51.998;10.440;2023-04-03T03:33:27;-1.60;99.90
32107;DHT22;18622;51.998;10.440;2023-04-03T03:35:55;-1.50;99.90
32107;DHT22;18622;51.998;10.440;2023-04-03T03:38:23;-1.40;99.90
32107;DHT22;18622;51.998;10.440;2023-04-03T03:40:51;-1.50;99.90
32107;DHT22;18622;51.998;10.440;2023-04-03T03:43:19;-1.50;99.90
32107;DHT22;18622;51.998;10.440;2023-04-03T03:45:51;-1.40;99.90
32107;DHT22;18622;51.998;10.440;2023-04-03T03:48:20;-1.50;99.90
32107;DHT22;18622;51.998;10.440;2023-04-03T03:50:48;-1.50;99.90
32107;DHT22;18622;51.998;10.440;2023-04-03T03:53:16;-1.50;99.90
32107;DHT22;18622;51.998;10.440;2023-04-03T03:55:44;-1.50;99.90
32107;DHT22;18622;51.998;10.440;2023-04-03T03:58:12;-1.50;99.90
32107;DHT22;18622;51.998;10.440;2023-04-03T04:00:40;-1.60;99.90
32107;DHT22;18622;51.998;10.440;2023-04-03T04:03:08;-1.60;99.90
32107;DHT22;18622;51.998;10.440;2023-04-03T04:05:35;-1.60;99.90
32107;DHT22;18622;51.998;10.440;2023-04-03T04:08:03;-1.60;99.90
32107;DHT22;18622;51.998;10.440;2023-04-03T04:10:31;-1.60;99.90
32107;DHT22;18622;51.998;10.440;2023-04-03T04:12:59;-1.60;99.90
32107;DHT22;18622;51.998;10.440;2023-04-03T04:15:27;-1.60;99.90
32107;DHT22;18622;51.998;10.440;2023-04-03T04:17:55;-1.70;99.90
32107;DHT22;18622;51.998;10.440;2023-04-03T04:20:23;-1.70;99.90
32107;DHT22;18622;51.998;10.440;2023-04-03T04:22:51;-1.70;99.90
32107;DHT22;18622;51.998;10.440;2023-04-03T04:25:19;-1.80;99.90
32107;DHT22;18622;51.998;10.440;2023-04-03T04:27:47;-1.80;99.90
32107;DHT22;18622;51.998;10.440;2023-04-03T04:30:15;-1.80;99.90
32107;DHT22;18622;51.998;10.440;2023-04-03T04:32:43;-1.80;99.90
32107;DHT22;18622;51.998;10.440;2023-04-03T04:35:11;-1.80;99.90
32107;DHT22;18622;51.998;10.440;2023-04-03T04:37:39;-1.90;99.90
32107;DHT22;18622;51.998;10.440;2023-04-03T04:40:07;-1.90;99.90
32107;DHT22;18622;51.998;10.440;2023-04-03T04:42:35;-1.90;99.90
32107;DHT22;18622;51.998;10.440;2023-04-03T04:45:03;-1.90;99.90
32107;DHT22;18622;51.998;10.440;2023-04-03T04:47:30;-1.90;99.90
32107;DHT22;18622;51.998;10.440;2023-04-03T04:49:58;-1.90;99.90
32107;DHT22;18622;51.998;10.440;2023-04-03T04:52:26;-1.90;99.90
32107;DHT22;18622;51.998;10.440;2023-04-03T04:54:54;-1.90;99.90
32107;DHT22;18622;51.998;10.440;2023-04-03T04:57:22;-1.90;99.90
32107;DHT22;18622;51.998;10.440;2023-04-03T04:59:49;-1.90;99.90
32107;DHT22;18622;51.998;10.440;2023-04-03T05:02:17;-1.90;99.90
32107;DHT22;18622;51.998;10.440;2023-04-03T05:04:45;-1.90;99.90
32107;DHT22;18622;51.998;10.440;2023-04-03T05:07:13;-1.80;99.90
32107;DHT22;18622;51.998;10.440;2023-04-03T05:09:41;-1.80;99.90
32107;DHT22;18622;51.998;10.440;2023-04-03T05:12:09;-1.70;99.90
32107;DHT22;18622;51.998;10.440;2023-04-03T05:14:36;-1.70;99.90
32107;DHT22;18622;51.998;10.440;2023-04-03T05:17:04;-1.60;99.90
32107;DHT22;18622;51.998;10.440;2023-04-03T05:22:10;-1.60;99.90
32107;DHT22;18622;51.998;10.440;2023-04-03T05:24:38;-1.60;99.90
32107;DHT22;18622;51.998;10.440;2023-04-03T05:27:05;-1.60;99.90
32107;DHT22;18622;51.998;10.440;2023-04-03T05:29:33;-1.60;99.90
32107;DHT22;18622;51.998;10.440;2023-04-03T14:49:29;15.70;37.70
32107;DHT22;18622;51.998;10.440;2023-04-03T14:51:58;15.10;37.90
32107;DHT22;18622;51.998;10.440;2023-04-03T14:54:26;14.90;39.30
32107;DHT22;18622;51.998;10.440;2023-04-03T14:56:57;14.70;38.60
32107;DHT22;18622;51.998;10.440;2023-04-03T14:59:26;14.10;40.70
32107;DHT22;18622;51.998;10.440;2023-04-03T15:01:54;13.60;41.00
32107;DHT22;18622;51.998;10.440;2023-04-03T15:04:22;13.30;41.40
32107;DHT22;18622;51.998;10.440;2023-04-03T15:06:51;13.30;41.30
32107;DHT22;18622;51.998;10.440;2023-04-03T15:09:25;14.60;39.30
32107;DHT22;18622;51.998;10.440;2023-04-03T15:11:54;16.20;39.10
32107;DHT22;18622;51.998;10.440;2023-04-03T15:14:23;17.90;35.20
32107;DHT22;18622;51.998;10.440;2023-04-03T15:16:50;18.90;35.40
32107;DHT22;18622;51.998;10.440;2023-04-03T15:19:18;19.90;35.20
32107;DHT22;18622;51.998;10.440;2023-04-03T15:21:46;20.80;34.70
32107;DHT22;18622;51.998;10.440;2023-04-03T15:24:14;20.90;33.60
32107;DHT22;18622;51.998;10.440;2023-04-03T15:26:42;19.80;35.20
32107;DHT22;18622;51.998;10.440;2023-04-03T15:29:10;18.60;36.00
32107;DHT22;18622;51.998;10.440;2023-04-03T15:31:37;17.40;35.60
32107;DHT22;18622;51.998;10.440;2023-04-03T15:34:05;16.30;36.80
32107;DHT22;18622;51.998;10.440;2023-04-03T15:36:33;15.20;37.60
32107;DHT22;18622;51.998;10.440;2023-04-03T15:39:01;14.30;40.00
32107;DHT22;18622;51.998;10.440;2023-04-03T15:41:29;14.00;40.50
32107;DHT22;18622;51.998;10.440;2023-04-03T15:43:57;13.80;40.60
32107;DHT22;18622;51.998;10.440;2023-04-03T15:46:24;14.50;41.90
32107;DHT22;18622;51.998;10.440;2023-04-03T15:48:52;15.90;38.30
32107;DHT22;18622;51.998;10.440;2023-04-03T15:51:20;17.00;38.60
32107;DHT22;18622;51.998;10.440;2023-04-03T15:53:48;18.00;35.30
32107;DHT22;18622;51.998;10.440;2023-04-03T15:56:16;17.60;36.30
32107;DHT22;18622;51.998;10.440;2023-04-03T15:58:44;17.30;37.90
32107;DHT22;18622;51.998;10.440;2023-04-03T16:01:12;17.30;36.90
32107;DHT22;18622;51.998;10.440;2023-04-03T16:03:41;16.70;38.60
32107;DHT22;18622;51.998;10.440;2023-04-03T16:06:16;16.00;39.60
32107;DHT22;18622;51.998;10.440;2023-04-03T16:08:46;15.30;41.10
32107;DHT22;18622;51.998;10.440;2023-04-03T16:11:15;14.60;41.80
32107;DHT22;18622;51.998;10.440;2023-04-03T16:13:43;13.90;41.10
32107;DHT22;18622;51.998;10.440;2023-04-03T16:16:11;13.10;41.40
32107;DHT22;18622;51.998;10.440;2023-04-03T16:18:39;12.20;43.80
32107;DHT22;18622;51.998;10.440;2023-04-03T16:21:07;11.60;45.50
32107;DHT22;18622;51.998;10.440;2023-04-03T16:23:35;10.90;46.40
32107;DHT22;18622;51.998;10.440;2023-04-03T16:26:03;10.50;47.00
32107;DHT22;18622;51.998;10.440;2023-04-03T16:28:31;10.10;48.30
32107;DHT22;18622;51.998;10.440;2023-04-03T16:31:00;9.70;48.40
32107;DHT22;18622;51.998;10.440;2023-04-03T16:33:28;9.50;49.50
32107;DHT22;18622;51.998;10.440;2023-04-03T16:35:56;9.30;50.50
32107;DHT22;18622;51.998;10.440;2023-04-03T16:38:24;9.10;50.90
32107;DHT22;18622;51.998;10.440;2023-04-03T16:40:52;9.10;51.30
32107;DHT22;18622;51.998;10.440;2023-04-03T16:43:21;8.90;50.70
32107;DHT22;18622;51.998;10.440;2023-04-03T16:45:49;9.00;51.20
32107;DHT22;18622;51.998;10.440;2023-04-03T16:48:17;9.10;51.90
32107;DHT22;18622;51.998;10.440;2023-04-03T16:50:48;9.00;52.20
32107;DHT22;18622;51.998;10.440;2023-04-03T16:53:17;8.90;51.90
32107;DHT22;18622;51.998;10.440;2023-04-03T16:55:45;8.90;52.30
32107;DHT22;18622;51.998;10.440;2023-04-03T16:58:13;8.80;52.20
32107;DHT22;18622;51.998;10.440;2023-04-03T17:00:42;8.70;52.70
32107;DHT22;18622;51.998;10.440;2023-04-03T17:03:10;8.60;53.00
32107;DHT22;18622;51.998;10.440;2023-04-03T17:05:37;8.50;53.40
32107;DHT22;18622;51.998;10.440;2023-04-03T17:08:05;8.40;53.10
32107;DHT22;18622;51.998;10.440;2023-04-03T17:10:33;8.20;53.30
32107;DHT22;18622;51.998;10.440;2023-04-03T17:13:01;8.00;52.00
32107;DHT22;18622;51.998;10.440;2023-04-03T17:15:29;7.80;51.50
32107;DHT22;18622;51.998;10.440;2023-04-03T17:17:57;7.60;52.80
32107;DHT22;18622;51.998;10.440;2023-04-03T17:20:25;7.40;53.80
32107;DHT22;18622;51.998;10.440;2023-04-03T17:22:53;7.20;54.70
32107;DHT22;18622;51.998;10.440;2023-04-03T17:25:21;7.00;55.00
32107;DHT22;18622;51.998;10.440;2023-04-03T17:27:49;6.80;55.60
32107;DHT22;18622;51.998;10.440;2023-04-03T17:30:17;6.60;56.30
32107;DHT22;18622;51.998;10.440;2023-04-03T17:32:44;6.30;57.20
32107;DHT22;18622;51.998;10.440;2023-04-03T17:35:12;6.20;57.50
32107;DHT22;18622;51.998;10.440;2023-04-03T17:37:40;6.00;58.10
32107;DHT22;18622;51.998;10.440;2023-04-03T17:40:08;5.80;59.00
32107;DHT22;18622;51.998;10.440;2023-04-03T17:42:38;5.70;59.50
32107;DHT22;18622;51.998;10.440;2023-04-03T17:45:06;5.60;59.70
32107;DHT22;18622;51.998;10.440;2023-04-03T17:47:34;5.50;60.30
32107;DHT22;18622;51.998;10.440;2023-04-03T17:50:02;5.40;60.30
32107;DHT22;18622;51.998;10.440;2023-04-03T17:52:30;5.20;60.70
32107;DHT22;18622;51.998;10.440;2023-04-03T17:54:58;5.10;60.90
32107;DHT22;18622;51.998;10.440;2023-04-03T17:57:26;4.90;61.10
32107;DHT22;18622;51.998;10.440;2023-04-03T17:59:54;4.80;61.00
32107;DHT22;18622;51.998;10.440;2023-04-03T18:02:22;4.70;61.30
32107;DHT22;18622;51.998;10.440;2023-04-03T18:04:53;4.50;61.50
32107;DHT22;18622;51.998;10.440;2023-04-03T18:07:20;4.40;61.90
32107;DHT22;18622;51.998;10.440;2023-04-03T18:09:50;4.30;62.10
32107;DHT22;18622;51.998;10.440;2023-04-03T18:12:19;4.10;62.40
32107;DHT22;18622;51.998;10.440;2023-04-03T18:14:47;4.00;63.00
32107;DHT22;18622;51.998;10.440;2023-04-03T18:17:15;3.90;63.40
32107;DHT22;18622;51.998;10.440;2023-04-03T18:19:44;3.80;63.80
32107;DHT22;18622;51.998;10.440;2023-04-03T18:22:14;3.70;64.00
32107;DHT22;18622;51.998;10.440;2023-04-03T18:24:44;3.60;64.80
32107;DHT22;18622;51.998;10.440;2023-04-03T18:27:21;3.50;64.80
32107;DHT22;18622;51.998;10.440;2023-04-03T18:29:49;3.40;65.30
32107;DHT22;18622;51.998;10.440;2023-04-03T18:32:19;3.30;65.40
32107;DHT22;18622;51.998;10.440;2023-04-03T18:34:47;3.20;65.80
32107;DHT22;18622;51.998;10.440;2023-04-03T18:37:15;3.20;66.00
32107;DHT22;18622;51.998;10.440;2023-04-03T18:39:43;3.10;67.30
32107;DHT22;18622;51.998;10.440;2023-04-03T18:42:18;3.00;66.80
32107;DHT22;18622;51.998;10.440;2023-04-03T18:44:43;2.90;66.90
32107;DHT22;18622;51.998;10.440;2023-04-03T18:47:12;2.80;67.20
32107;DHT22;18622;51.998;10.440;2023-04-03T18:49:41;2.80;67.70
32107;DHT22;18622;51.998;10.440;2023-04-03T18:52:10;2.70;67.40
32107;DHT22;18622;51.998;10.440;2023-04-03T18:54:38;2.60;67.90
32107;DHT22;18622;51.998;10.440;2023-04-03T18:57:08;2.50;68.60
32107;DHT22;18622;51.998;10.440;2023-04-03T18:59:36;2.40;68.20
32107;DHT22;18622;51.998;10.440;2023-04-03T19:02:05;2.40;68.30
32107;DHT22;18622;51.998;10.440;2023-04-03T19:04:33;2.30;69.10
32107;DHT22;18622;51.998;10.440;2023-04-03T19:07:01;2.20;69.60
32107;DHT22;18622;51.998;10.440;2023-04-03T19:09:31;2.20;70.30
32107;DHT22;18622;51.998;10.440;2023-04-03T19:11:59;2.10;70.60
32107;DHT22;18622;51.998;10.440;2023-04-03T19:14:27;2.00;71.20
32107;DHT22;18622;51.998;10.440;2023-04-03T19:16:55;2.00;72.10
32107;DHT22;18622;51.998;10.440;2023-04-03T19:19:23;1.90;72.30
32107;DHT22;18622;51.998;10.440;2023-04-03T19:21:50;1.80;72.70
32107;DHT22;18622;51.998;10.440;2023-04-03T19:24:18;1.80;73.20
32107;DHT22;18622;51.998;10.440;2023-04-03T19:26:47;1.80;73.60
32107;DHT22;18622;51.998;10.440;2023-04-03T19:29:14;1.80;74.00
32107;DHT22;18622;51.998;10.440;2023-04-03T19:31:43;1.80;74.40
32107;DHT22;18622;51.998;10.440;2023-04-03T19:34:11;1.90;74.70
32107;DHT22;18622;51.998;10.440;2023-04-03T19:36:38;1.90;74.90
32107;DHT22;18622;51.998;10.440;2023-04-03T19:39:07;1.90;75.60
32107;DHT22;18622;51.998;10.440;2023-04-03T19:41:36;1.90;76.00
32107;DHT22;18622;51.998;10.440;2023-04-03T19:44:06;1.90;76.70
32107;DHT22;18622;51.998;10.440;2023-04-03T19:46:34;1.90;76.80
32107;DHT22;18622;51.998;10.440;2023-04-03T19:49:02;1.80;77.30
32107;DHT22;18622;51.998;10.440;2023-04-03T19:51:30;1.80;77.80
32107;DHT22;18622;51.998;10.440;2023-04-03T19:53:58;1.80;78.00
32107;DHT22;18622;51.998;10.440;2023-04-03T19:56:26;1.70;78.30
32107;DHT22;18622;51.998;10.440;2023-04-03T19:58:53;1.60;78.60
32107;DHT22;18622;51.998;10.440;2023-04-03T20:01:22;1.60;79.10
32107;DHT22;18622;51.998;10.440;2023-04-03T20:03:52;1.50;79.80
32107;DHT22;18622;51.998;10.440;2023-04-03T20:06:20;1.40;80.20
32107;DHT22;18622;51.998;10.440;2023-04-03T20:08:48;1.30;80.80
32107;DHT22;18622;51.998;10.440;2023-04-03T20:11:16;1.20;81.60
32107;DHT22;18622;51.998;10.440;2023-04-03T20:13:44;1.20;82.60
32107;DHT22;18622;51.998;10.440;2023-04-03T20:16:13;1.10;84.00
32107;DHT22;18622;51.998;10.440;2023-04-03T20:18:41;1.10;85.40
32107;DHT22;18622;51.998;10.440;2023-04-03T20:21:08;1.10;87.20
32107;DHT22;18622;51.998;10.440;2023-04-03T20:23:36;1.10;88.60
32107;DHT22;18622;51.998;10.440;2023-04-03T20:26:06;1.00;90.20
32107;DHT22;18622;51.998;10.440;2023-04-03T20:28:34;1.10;90.60
32107;DHT22;18622;51.998;10.440;2023-04-03T20:31:03;1.10;91.10
32107;DHT22;18622;51.998;10.440;2023-04-03T20:33:31;1.10;91.90
32107;DHT22;18622;51.998;10.440;2023-04-03T20:35:59;1.10;92.20
32107;DHT22;18622;51.998;10.440;2023-04-03T20:38:27;1.20;92.70
32107;DHT22;18622;51.998;10.440;2023-04-03T20:40:55;1.20;93.60
32107;DHT22;18622;51.998;10.440;2023-04-03T20:43:23;1.30;94.00
